Claryville, Kentucky
Current Conditions -  °F | °C
As of 3:53 AM on Sunday 26 Oct 2014 (Local Time) from KLUK Reporting Station
Clear Clear  
Wind Chill: 57°   Ceiling: Unl
Heat Index: 57°   Visibility: 10mi
Dew Point: 36°   Wind: 6mph
Humidity: 45%   Direction: 310°NW
Pressure: 29.97"   Gusts: NA
Location:  38.9134°N, 84.39°W
Report Text: KLUK 260753Z AUTO 31005KT 10SM CLR 14/02 A2997 RMK AO2 SLP144 T01390022
Loading
Personal Weather Stations






























Interactive Weather Map
Tropical Storm Tracking
New forecast layout! Learn more

10-Day Weather Forecast

Advertisements
Track Severe Weather on mobile